createdAt,value
2018-03-08T00:00:47.428Z,87.82
2018-03-08T00:01:47.395Z,88.29
2018-03-08T00:03:40.082Z,88.20
2018-03-08T00:04:40.174Z,87.62
2018-03-08T00:06:34.778Z,87.72
2018-03-08T00:07:34.729Z,87.72
2018-03-08T00:09:30.767Z,87.53
2018-03-08T00:10:27.698Z,88.01
2018-03-08T00:12:20.431Z,87.53
2018-03-08T00:13:20.237Z,87.72
2018-03-08T00:15:13.078Z,88.01
2018-03-08T00:16:12.950Z,88.34
2018-03-08T00:18:05.836Z,88.39
2018-03-08T00:19:05.704Z,87.58
2018-03-08T00:20:58.578Z,88.10
2018-03-08T00:21:58.449Z,87.77
2018-03-08T00:23:51.319Z,88.20
2018-03-08T00:24:51.246Z,88.81
2018-03-08T00:26:44.182Z,88.53
2018-03-08T00:27:44.052Z,88.43
2018-03-08T00:29:36.931Z,88.39
2018-03-08T00:30:36.803Z,88.62
2018-03-08T00:32:29.648Z,88.53
2018-03-08T00:33:29.573Z,88.62
2018-03-08T00:35:22.434Z,88.24
2018-03-08T00:36:22.320Z,88.06
2018-03-08T00:38:15.149Z,88.53
2018-03-08T00:39:15.059Z,88.72
2018-03-08T00:41:07.813Z,88.62
2018-03-08T00:42:07.697Z,88.81
2018-03-08T00:44:00.453Z,88.15
2018-03-08T00:45:00.342Z,88.24
2018-03-08T00:46:53.122Z,88.53
2018-03-08T00:47:52.988Z,88.53
2018-03-08T00:49:46.256Z,88.15
2018-03-08T00:50:46.158Z,88.15
2018-03-08T00:52:39.016Z,88.81
2018-03-08T00:53:38.899Z,88.72
2018-03-08T00:55:31.662Z,88.62
2018-03-08T00:56:31.554Z,88.34
2018-03-08T00:58:26.470Z,88.53
2018-03-08T00:59:26.001Z,88.34
2018-03-08T01:01:19.234Z,88.72
2018-03-08T01:02:18.867Z,88.62
2018-03-08T01:04:11.547Z,88.62
2018-03-08T01:05:11.612Z,88.81
2018-03-08T01:07:04.355Z,88.62
2018-03-08T01:08:04.187Z,88.91
2018-03-08T01:09:57.021Z,89.00
2018-03-08T01:10:56.842Z,89.48
2018-03-08T01:12:49.738Z,89.39
2018-03-08T01:13:49.592Z,89.29
2018-03-08T01:15:42.771Z,89.39
2018-03-08T01:16:42.653Z,89.39
2018-03-08T01:18:36.620Z,89.86
2018-03-08T01:19:36.578Z,89.95
2018-03-08T01:21:28.758Z,89.76
2018-03-08T01:22:28.663Z,90.52
2018-03-08T01:24:21.520Z,90.71
2018-03-08T01:25:21.410Z,90.90
2018-03-08T01:27:14.557Z,90.90
2018-03-08T01:28:14.541Z,91.09
2018-03-08T01:30:08.143Z,91.38
2018-03-08T01:31:08.042Z,91.28
2018-03-08T01:33:01.590Z,92.14
2018-03-08T01:34:01.302Z,91.38
2018-03-08T01:35:54.670Z,92.14
2018-03-08T01:36:54.550Z,92.04
2018-03-08T01:38:47.393Z,91.56
2018-03-08T01:39:47.290Z,92.04
2018-03-08T01:41:40.260Z,92.33
2018-03-08T01:42:40.151Z,92.71
2018-03-08T01:44:32.927Z,92.28
2018-03-08T01:45:32.801Z,92.52
2018-03-08T01:47:25.547Z,92.76
2018-03-08T01:48:25.455Z,92.94
2018-03-08T01:50:18.725Z,93.41
2018-03-08T01:51:18.614Z,94.27
2018-03-08T01:53:11.371Z,94.27
2018-03-08T01:54:11.264Z,94.18
2018-03-08T01:56:04.026Z,94.56
2018-03-08T01:57:03.899Z,94.08
2018-03-08T01:58:56.743Z,94.56
2018-03-08T01:59:56.655Z,94.65
2018-03-08T02:01:49.520Z,93.89
2018-03-08T02:02:49.394Z,94.08
2018-03-08T02:04:42.154Z,94.46
2018-03-08T02:05:42.046Z,94.27
2018-03-08T02:07:36.571Z,94.27
2018-03-08T02:10:27.974Z,94.84
2018-03-08T02:11:27.865Z,94.84
2018-03-08T02:13:21.377Z,94.65
2018-03-08T02:14:21.248Z,94.46
2018-03-08T02:16:14.091Z,94.27
2018-03-08T02:17:13.960Z,94.27
2018-03-08T02:19:06.874Z,94.18
2018-03-08T02:20:07.678Z,94.56
2018-03-08T02:21:59.679Z,95.60
2018-03-08T02:22:59.591Z,94.56
2018-03-08T02:24:52.425Z,94.56
2018-03-08T02:25:52.314Z,95.31
2018-03-08T02:27:45.219Z,95.03
2018-03-08T02:28:45.061Z,95.22
2018-03-08T02:30:37.875Z,94.74
2018-03-08T02:31:37.738Z,94.56
2018-03-08T02:33:30.606Z,94.46
2018-03-08T02:34:30.474Z,94.74
2018-03-08T02:36:23.588Z,94.37
2018-03-08T02:37:23.298Z,94.37
2018-03-08T02:39:16.065Z,94.37
2018-03-08T02:40:16.015Z,94.56
2018-03-08T02:42:08.848Z,94.08
2018-03-08T02:43:08.823Z,94.56
2018-03-08T02:45:01.475Z,94.46
2018-03-08T02:46:01.437Z,94.56
2018-03-08T02:47:54.245Z,94.74
2018-03-08T02:48:54.102Z,94.84
2018-03-08T02:50:47.508Z,94.74
2018-03-08T02:51:46.858Z,94.46
2018-03-08T02:53:39.774Z,94.93
2018-03-08T02:54:39.844Z,94.46
2018-03-08T02:56:33.086Z,94.56
2018-03-08T02:57:32.388Z,94.27
2018-03-08T02:59:25.204Z,94.27
2018-03-08T03:00:25.136Z,94.27
2018-03-08T03:02:17.878Z,94.27
2018-03-08T03:03:17.750Z,94.37
2018-03-08T03:05:10.594Z,94.46
2018-03-08T03:06:10.522Z,95.12
2018-03-08T03:08:03.262Z,94.65
2018-03-08T03:09:03.155Z,94.27
2018-03-08T03:10:56.012Z,94.56
2018-03-08T03:11:55.902Z,94.37
2018-03-08T03:13:48.988Z,94.37
2018-03-08T03:14:48.849Z,94.65
2018-03-08T03:16:41.720Z,94.37
2018-03-08T03:17:41.607Z,94.37
2018-03-08T03:19:34.469Z,94.84
2018-03-08T03:20:34.366Z,94.37
2018-03-08T03:22:27.113Z,94.18
2018-03-08T03:23:26.998Z,94.46
2018-03-08T03:25:19.868Z,94.27
2018-03-08T03:26:19.750Z,94.27
2018-03-08T03:28:12.614Z,94.46
2018-03-08T03:29:12.493Z,94.27
2018-03-08T03:31:05.639Z,94.27
2018-03-08T03:32:05.267Z,94.27
2018-03-08T03:33:59.598Z,94.08
2018-03-08T03:34:57.995Z,93.99
2018-03-08T03:36:50.860Z,93.32
2018-03-08T03:37:50.744Z,93.51
2018-03-08T03:39:43.644Z,93.32
2018-03-08T03:40:43.501Z,93.41
2018-03-08T03:42:36.445Z,93.04
2018-03-08T03:43:36.350Z,93.32
2018-03-08T03:45:29.672Z,93.80
2018-03-08T03:46:29.592Z,93.23
2018-03-08T03:48:22.409Z,93.51
2018-03-08T03:49:22.298Z,93.32
2018-03-08T03:51:15.121Z,93.32
2018-03-08T03:52:15.004Z,93.70
2018-03-08T03:54:07.852Z,93.32
2018-03-08T03:55:07.771Z,93.41
2018-03-08T03:57:00.614Z,93.37
2018-03-08T03:58:00.520Z,93.46
2018-03-08T03:59:53.370Z,93.46
2018-03-08T04:00:53.255Z,93.08
2018-03-08T04:02:46.112Z,93.46
2018-03-08T04:03:46.014Z,93.56
2018-03-08T04:05:38.855Z,93.65
2018-03-08T04:06:38.746Z,94.23
2018-03-08T04:08:31.616Z,94.13
2018-03-08T04:09:31.513Z,94.04
2018-03-08T04:11:24.351Z,94.60
2018-03-08T04:12:24.261Z,93.84
2018-03-08T04:14:17.178Z,93.84
2018-03-08T04:15:17.057Z,94.42
2018-03-08T04:17:09.859Z,94.32
2018-03-08T04:18:09.754Z,94.04
2018-03-08T04:20:02.633Z,93.84
2018-03-08T04:21:02.503Z,93.46
2018-03-08T04:22:55.380Z,92.66
2018-03-08T04:23:55.284Z,92.80
2018-03-08T04:25:48.613Z,93.46
2018-03-08T04:26:48.009Z,93.46
2018-03-08T04:28:40.852Z,93.61
2018-03-08T04:29:40.762Z,93.41
2018-03-08T04:31:33.637Z,94.42
2018-03-08T04:32:33.792Z,93.46
2018-03-08T04:34:26.348Z,94.42
2018-03-08T04:35:26.279Z,93.27
2018-03-08T04:37:19.345Z,93.51
2018-03-08T04:38:19.032Z,93.37
2018-03-08T04:40:14.827Z,93.37
2018-03-08T04:41:14.727Z,93.27
2018-03-08T04:43:07.534Z,94.04
2018-03-08T04:44:07.394Z,93.94
2018-03-08T04:46:01.896Z,94.13
2018-03-08T04:47:01.763Z,93.37
2018-03-08T04:48:54.613Z,93.27
2018-03-08T04:49:54.513Z,93.32
2018-03-08T04:51:47.356Z,93.27
2018-03-08T04:52:47.244Z,93.27
2018-03-08T04:54:40.107Z,93.37
2018-03-08T04:55:40.046Z,93.27
2018-03-08T04:57:32.902Z,93.84
2018-03-08T04:58:32.749Z,94.13
2018-03-08T05:00:25.603Z,93.27
2018-03-08T05:01:25.497Z,94.13
2018-03-08T05:03:20.121Z,94.13
2018-03-08T05:04:19.896Z,94.04
2018-03-08T05:06:12.559Z,94.04
2018-03-08T05:07:12.458Z,94.04
2018-03-08T05:09:05.424Z,94.42
2018-03-08T05:10:05.296Z,94.32
2018-03-08T05:11:58.164Z,93.84
2018-03-08T05:12:58.033Z,94.04
2018-03-08T05:14:50.921Z,93.46
2018-03-08T05:15:50.812Z,93.56
2018-03-08T05:17:43.753Z,93.75
2018-03-08T05:18:43.634Z,93.37
2018-03-08T05:20:36.511Z,93.37
2018-03-08T05:21:36.404Z,93.27
2018-03-08T05:23:29.731Z,93.37
2018-03-08T05:24:29.247Z,93.46
2018-03-08T05:26:22.520Z,93.94
2018-03-08T05:27:22.396Z,93.94
2018-03-08T05:29:15.238Z,93.99
2018-03-08T05:30:15.157Z,94.13
2018-03-08T05:32:08.023Z,94.60
2018-03-08T05:33:07.920Z,94.32
2018-03-08T05:35:00.777Z,94.89
2018-03-08T05:36:00.642Z,94.04
2018-03-08T05:37:53.503Z,94.23
2018-03-08T05:38:53.387Z,94.70
2018-03-08T05:40:46.340Z,94.51
2018-03-08T05:41:46.241Z,95.17
2018-03-08T05:43:42.071Z,95.17
2018-03-08T05:44:41.962Z,94.60
2018-03-08T05:46:37.830Z,95.45
2018-03-08T05:47:36.250Z,95.36
2018-03-08T05:49:30.561Z,95.93
2018-03-08T05:50:30.441Z,95.93
2018-03-08T05:52:24.200Z,96.12
2018-03-08T05:53:24.098Z,96.22
2018-03-08T05:55:17.474Z,95.93
2018-03-08T05:56:17.375Z,95.45
2018-03-08T05:58:11.651Z,95.65
2018-03-08T05:59:11.550Z,95.65
2018-03-08T06:01:05.863Z,95.84
2018-03-08T06:02:05.751Z,95.84
2018-03-08T06:04:06.048Z,95.65
2018-03-08T06:05:05.951Z,95.93
2018-03-08T06:07:01.794Z,95.45
2018-03-08T06:08:01.678Z,96.22
2018-03-08T06:09:54.526Z,95.65
2018-03-08T06:10:54.426Z,95.65
2018-03-08T06:12:47.840Z,96.22
2018-03-08T06:13:47.692Z,96.22
2018-03-08T06:15:40.528Z,95.65
2018-03-08T06:16:40.434Z,95.74
2018-03-08T06:18:33.310Z,95.74
2018-03-08T06:19:33.180Z,95.74
2018-03-08T06:21:26.034Z,95.65
2018-03-08T06:22:25.938Z,95.93
2018-03-08T06:24:18.792Z,95.93
2018-03-08T06:25:18.708Z,95.74
2018-03-08T06:27:11.540Z,95.74
2018-03-08T06:28:11.433Z,96.03
2018-03-08T06:30:04.214Z,95.93
2018-03-08T06:31:04.080Z,96.22
2018-03-08T06:32:57.442Z,96.31
2018-03-08T06:33:57.334Z,96.12
2018-03-08T06:35:50.102Z,95.65
2018-03-08T06:36:49.999Z,95.55
2018-03-08T06:38:42.747Z,95.45
2018-03-08T06:39:42.647Z,95.17
2018-03-08T06:41:35.403Z,95.41
2018-03-08T06:42:35.279Z,94.08
2018-03-08T06:44:28.026Z,93.61
2018-03-08T06:45:27.934Z,93.32
2018-03-08T06:47:20.695Z,93.04
2018-03-08T06:48:20.578Z,92.94
2018-03-08T06:50:13.330Z,93.04
2018-03-08T06:51:13.234Z,92.85
2018-03-08T06:53:05.987Z,93.41
2018-03-08T06:54:05.877Z,92.66
2018-03-08T06:55:58.633Z,92.66
2018-03-08T06:56:58.555Z,92.94
2018-03-08T06:58:51.287Z,92.57
2018-03-08T06:59:51.180Z,92.47
2018-03-08T07:01:43.927Z,92.38
2018-03-08T07:02:43.816Z,92.47
2018-03-08T07:04:38.066Z,92.28
2018-03-08T07:05:36.974Z,92.28
2018-03-08T07:07:29.748Z,91.99
2018-03-08T07:08:29.623Z,91.52
2018-03-08T07:10:22.388Z,91.05
2018-03-08T07:11:22.272Z,90.57
2018-03-08T07:13:15.022Z,90.67
2018-03-08T07:14:14.920Z,89.81
2018-03-08T07:16:07.689Z,90.76
2018-03-08T07:17:07.570Z,89.81
2018-03-08T07:19:00.319Z,89.15
2018-03-08T07:20:00.211Z,89.53
2018-03-08T07:21:52.968Z,89.34
2018-03-08T07:22:52.860Z,89.62
2018-03-08T07:24:45.627Z,89.25
2018-03-08T07:25:45.512Z,89.53
2018-03-08T07:27:38.270Z,89.06
2018-03-08T07:28:38.345Z,88.87
2018-03-08T07:30:30.928Z,88.96
2018-03-08T07:31:30.808Z,89.15
2018-03-08T07:33:24.097Z,88.20
2018-03-08T07:34:23.957Z,87.82
2018-03-08T07:36:16.706Z,88.01
2018-03-08T07:37:16.603Z,87.63
2018-03-08T07:39:09.380Z,87.54
2018-03-08T07:40:09.249Z,87.73
2018-03-08T07:42:02.021Z,86.97
2018-03-08T07:43:01.912Z,87.63
2018-03-08T07:44:54.669Z,87.35
2018-03-08T07:45:54.557Z,87.16
2018-03-08T07:47:47.299Z,87.06
2018-03-08T07:48:47.191Z,87.25
2018-03-08T07:50:40.088Z,87.01
2018-03-08T07:51:39.848Z,86.16
2018-03-08T07:53:32.610Z,86.07
2018-03-08T07:54:32.503Z,86.72
2018-03-08T07:56:25.261Z,85.78
2018-03-08T07:57:25.137Z,85.78
2018-03-08T07:59:18.172Z,86.35
2018-03-08T08:00:18.214Z,86.44
2018-03-08T08:02:11.106Z,86.91
2018-03-08T08:03:10.970Z,86.63
2018-03-08T08:05:03.699Z,86.35
2018-03-08T08:06:03.599Z,86.16
2018-03-08T08:07:56.358Z,86.63
2018-03-08T08:08:56.241Z,85.49
2018-03-08T08:10:48.987Z,85.11
2018-03-08T08:11:48.882Z,85.78
2018-03-08T08:13:41.655Z,85.68
2018-03-08T08:14:41.534Z,85.78
2018-03-08T08:16:34.288Z,86.16
2018-03-08T08:17:34.205Z,86.63
2018-03-08T08:19:26.962Z,86.25
2018-03-08T08:20:26.829Z,86.35
2018-03-08T08:22:19.576Z,86.16
2018-03-08T08:23:19.477Z,86.44
2018-03-08T08:25:12.241Z,86.44
2018-03-08T08:26:12.120Z,86.91
2018-03-08T08:28:04.863Z,86.07
2018-03-08T08:29:04.769Z,86.44
2018-03-08T08:30:58.040Z,85.11
2018-03-08T08:31:57.928Z,85.11
2018-03-08T08:33:50.708Z,84.92
2018-03-08T08:34:50.585Z,84.36
2018-03-08T08:36:43.348Z,84.59
2018-03-08T08:37:43.230Z,83.92
2018-03-08T08:39:36.101Z,84.78
2018-03-08T08:40:35.876Z,84.21
2018-03-08T08:42:28.633Z,83.16
2018-03-08T08:43:28.526Z,83.07
2018-03-08T08:45:21.829Z,83.73
2018-03-08T08:46:21.675Z,84.01
2018-03-08T08:48:14.532Z,82.97
2018-03-08T08:49:14.423Z,82.78
2018-03-08T08:51:07.284Z,82.97
2018-03-08T08:52:07.083Z,82.97
2018-03-08T08:53:59.844Z,82.88
2018-03-08T08:54:59.749Z,81.65
2018-03-08T08:56:52.466Z,80.79
2018-03-08T08:57:52.367Z,81.55
2018-03-08T08:59:45.135Z,81.40
2018-03-08T09:00:45.023Z,80.83
2018-03-08T09:02:37.770Z,81.02
2018-03-08T09:03:37.676Z,81.02
2018-03-08T09:05:30.925Z,80.98
2018-03-08T09:06:30.815Z,81.36
2018-03-08T09:08:23.573Z,80.69
2018-03-08T09:09:23.465Z,80.51
2018-03-08T09:11:16.252Z,80.60
2018-03-08T09:12:16.118Z,81.17
2018-03-08T09:14:08.870Z,80.16
2018-03-08T09:15:08.763Z,79.94
2018-03-08T09:17:01.543Z,79.17
2018-03-08T09:18:01.407Z,79.46
2018-03-08T09:19:54.164Z,79.08
2018-03-08T09:20:54.068Z,79.08
2018-03-08T09:22:46.839Z,79.27
2018-03-08T09:23:46.711Z,79.55
2018-03-08T09:25:39.466Z,80.13
2018-03-08T09:26:39.357Z,80.13
2018-03-08T09:28:32.647Z,79.27
2018-03-08T09:29:32.510Z,79.08
2018-03-08T09:31:25.270Z,79.79
2018-03-08T09:32:25.149Z,79.22
2018-03-08T09:34:17.927Z,78.36
2018-03-08T09:35:17.810Z,77.60
2018-03-08T09:37:10.721Z,76.65
2018-03-08T09:38:10.559Z,77.70
2018-03-08T09:40:03.322Z,76.18
2018-03-08T09:41:03.209Z,75.89
2018-03-08T09:42:55.978Z,77.18
2018-03-08T09:43:55.870Z,77.28
2018-03-08T09:45:48.605Z,78.17
2018-03-08T09:46:48.509Z,77.70
2018-03-08T09:48:41.262Z,77.03
2018-03-08T09:49:41.160Z,77.22
2018-03-08T09:51:34.041Z,76.84
2018-03-08T09:52:33.787Z,76.27
2018-03-08T09:54:26.553Z,76.08
2018-03-08T09:55:26.453Z,75.60
2018-03-08T09:57:19.182Z,75.70
2018-03-08T09:58:19.100Z,76.08
2018-03-08T10:00:11.838Z,75.32
2018-03-08T10:01:11.730Z,75.79
2018-03-08T10:03:04.479Z,74.56
2018-03-08T10:04:04.378Z,74.94
2018-03-08T10:05:57.150Z,75.51
2018-03-08T10:06:57.042Z,74.66
2018-03-08T10:08:49.772Z,73.80
2018-03-08T10:09:49.668Z,74.08
2018-03-08T10:11:42.436Z,73.99
2018-03-08T10:12:42.316Z,74.27
2018-03-08T10:14:35.072Z,74.66
2018-03-08T10:15:34.967Z,74.27
2018-03-08T10:17:27.855Z,74.03
2018-03-08T10:18:27.759Z,73.84
2018-03-08T10:20:20.562Z,73.93
2018-03-08T10:21:44.182Z,74.60
2018-03-08T10:23:13.341Z,74.41
2018-03-08T10:24:13.219Z,74.41
2018-03-08T10:26:06.342Z,73.18
2018-03-08T10:27:05.960Z,73.27
2018-03-08T10:28:58.828Z,72.99
2018-03-08T10:29:58.713Z,73.18
2018-03-08T10:31:51.581Z,74.12
2018-03-08T10:32:51.462Z,74.03
2018-03-08T10:34:44.320Z,73.08
2018-03-08T10:35:44.214Z,72.99
2018-03-08T10:37:37.093Z,73.36
2018-03-08T10:38:36.961Z,72.89
2018-03-08T10:43:22.569Z,72.89
2018-03-08T10:44:22.465Z,72.32
2018-03-08T10:46:15.306Z,70.70
2018-03-08T10:47:15.220Z,70.42
2018-03-08T10:49:08.129Z,71.31
2018-03-08T10:50:07.975Z,70.64
2018-03-08T10:52:00.807Z,70.42
2018-03-08T10:53:00.711Z,70.17
2018-03-08T10:54:54.087Z,70.17
2018-03-08T10:55:53.973Z,70.64
2018-03-08T10:57:46.816Z,69.79
2018-03-08T10:58:46.718Z,69.98
2018-03-08T11:00:39.577Z,71.59
2018-03-08T11:01:39.470Z,70.45
2018-03-08T11:03:32.311Z,70.64
2018-03-08T11:04:32.217Z,70.64
2018-03-08T11:06:25.099Z,70.64
2018-03-08T11:07:24.973Z,69.41
2018-03-08T11:09:17.821Z,69.88
2018-03-08T11:10:17.719Z,69.69
2018-03-08T11:12:10.589Z,69.31
2018-03-08T11:13:10.463Z,69.50
2018-03-08T11:15:03.317Z,70.17
2018-03-08T11:16:03.215Z,69.50
2018-03-08T11:17:56.077Z,69.69
2018-03-08T11:18:55.972Z,69.88
2018-03-08T11:20:48.818Z,70.20
2018-03-08T11:21:48.731Z,70.26
2018-03-08T11:23:41.575Z,70.30
2018-03-08T11:24:41.469Z,70.20
2018-03-08T11:26:34.831Z,69.82
2018-03-08T11:27:34.730Z,69.35
2018-03-08T11:29:27.596Z,69.06
2018-03-08T11:30:27.486Z,68.59
2018-03-08T11:32:20.328Z,68.96
2018-03-08T11:33:20.260Z,68.77
2018-03-08T11:35:13.216Z,69.44
2018-03-08T11:36:13.095Z,67.92
2018-03-08T11:38:05.946Z,67.32
2018-03-08T11:39:05.830Z,68.11
2018-03-08T11:40:58.855Z,68.59
2018-03-08T11:41:58.575Z,67.92
2018-03-08T11:43:51.429Z,67.92
2018-03-08T11:44:51.334Z,67.63
2018-03-08T11:46:44.183Z,67.63
2018-03-08T11:47:44.084Z,69.06
2018-03-08T11:49:36.918Z,69.41
2018-03-08T11:50:36.828Z,70.39
2018-03-08T11:52:29.688Z,69.60
2018-03-08T11:53:29.574Z,70.17
2018-03-08T11:55:22.458Z,70.68
2018-03-08T11:56:22.323Z,70.58
2018-03-08T11:58:15.172Z,68.68
2018-03-08T11:59:15.079Z,68.96
2018-03-08T12:01:07.962Z,68.49
2018-03-08T12:02:07.818Z,68.77
2018-03-08T12:04:01.184Z,68.68
2018-03-08T12:05:01.080Z,68.68
2018-03-08T12:06:53.967Z,68.30
2018-03-08T12:07:53.832Z,68.11
2018-03-08T12:09:46.691Z,68.30
2018-03-08T12:10:46.611Z,68.40
2018-03-08T12:12:39.462Z,68.33
2018-03-08T12:13:39.334Z,68.24
2018-03-08T12:15:32.290Z,67.95
2018-03-08T12:16:32.206Z,67.00
2018-03-08T12:18:25.083Z,68.40
2018-03-08T12:19:24.931Z,69.35
2018-03-08T12:21:17.785Z,68.96
2018-03-08T12:22:17.694Z,69.06
2018-03-08T12:24:10.569Z,68.11
2018-03-08T12:25:10.431Z,67.92
2018-03-08T12:27:03.285Z,68.87
2018-03-08T12:28:03.186Z,68.77
2018-03-08T12:29:56.063Z,68.87
2018-03-08T12:30:55.938Z,69.35
2018-03-08T12:32:48.778Z,69.35
2018-03-08T12:33:48.687Z,69.38
2018-03-08T12:35:41.581Z,69.51
2018-03-08T12:36:41.434Z,68.27
2018-03-08T12:38:34.305Z,68.37
2018-03-08T12:39:34.232Z,67.22
2018-03-08T12:41:27.052Z,67.00
2018-03-08T12:42:26.937Z,67.61
2018-03-08T12:44:19.774Z,68.56
2018-03-08T12:45:19.688Z,67.13
2018-03-08T12:47:12.560Z,66.37
2018-03-08T12:48:12.431Z,66.88
2018-03-08T12:50:05.298Z,66.18
2018-03-08T12:51:05.187Z,66.66
2018-03-08T12:52:58.144Z,66.46
2018-03-08T12:53:58.038Z,66.46
2018-03-08T12:55:50.881Z,65.80
2018-03-08T12:56:50.785Z,65.77
2018-03-08T12:58:43.647Z,66.18
2018-03-08T12:59:43.534Z,65.86
2018-03-08T13:01:36.381Z,67.03
2018-03-08T13:02:36.290Z,67.41
2018-03-08T13:04:29.245Z,65.32
2018-03-08T13:05:29.189Z,65.23
2018-03-08T13:07:21.990Z,64.84
2018-03-08T13:08:21.882Z,64.97
2018-03-08T13:10:14.762Z,64.50
2018-03-08T13:11:14.636Z,64.40
2018-03-08T13:13:07.484Z,64.97
2018-03-08T13:14:07.394Z,64.18
2018-03-08T13:16:00.247Z,64.94
2018-03-08T13:17:00.144Z,65.32
2018-03-08T13:18:52.975Z,64.78
2018-03-08T13:19:52.891Z,64.31
2018-03-08T13:21:45.790Z,64.40
2018-03-08T13:22:45.633Z,64.21
2018-03-08T13:24:38.488Z,64.50
2018-03-08T13:25:38.380Z,64.40
2018-03-08T13:27:31.278Z,64.31
2018-03-08T13:28:31.179Z,64.21
2018-03-08T13:30:23.998Z,64.18
2018-03-08T13:31:23.879Z,65.16
2018-03-08T13:33:17.163Z,65.32
2018-03-08T13:34:17.134Z,65.42
2018-03-08T13:36:10.016Z,66.08
2018-03-08T13:37:09.958Z,65.70
2018-03-08T13:39:02.866Z,65.45
2018-03-08T13:40:02.792Z,65.23
2018-03-08T13:41:56.107Z,66.27
2018-03-08T13:42:56.021Z,66.08
2018-03-08T13:44:48.892Z,66.08
2018-03-08T13:45:48.803Z,66.11
2018-03-08T13:47:41.603Z,65.07
2018-03-08T13:48:41.511Z,64.50
2018-03-08T13:50:34.360Z,64.31
2018-03-08T13:51:34.254Z,63.92
2018-03-08T13:53:27.131Z,64.59
2018-03-08T13:54:27.020Z,64.50
2018-03-08T13:56:19.879Z,64.43
2018-03-08T13:57:19.759Z,63.29
2018-03-08T13:59:12.611Z,63.89
2018-03-08T14:00:12.501Z,63.04
2018-03-08T14:02:05.362Z,61.99
2018-03-08T14:03:05.251Z,62.37
2018-03-08T14:04:58.175Z,62.94
2018-03-08T14:05:58.008Z,61.89
2018-03-08T14:07:50.847Z,62.81
2018-03-08T14:08:50.758Z,62.05
2018-03-08T14:10:43.619Z,63.17
2018-03-08T14:11:43.503Z,63.64
2018-03-08T14:13:36.456Z,64.75
2018-03-08T14:14:36.352Z,64.84
2018-03-08T14:16:29.411Z,65.32
2018-03-08T14:17:29.313Z,65.13
2018-03-08T14:19:22.173Z,64.94
2018-03-08T14:20:22.065Z,65.42
2018-03-08T14:22:14.954Z,66.08
2018-03-08T14:23:14.833Z,66.53
2018-03-08T14:25:07.658Z,65.61
2018-03-08T14:26:07.561Z,65.99
2018-03-08T14:28:00.950Z,65.32
2018-03-08T14:29:00.823Z,65.32
2018-03-08T14:30:53.666Z,65.26
2018-03-08T14:31:53.612Z,65.00
2018-03-08T14:33:46.458Z,64.24
2018-03-08T14:34:46.322Z,64.24
2018-03-08T14:36:39.188Z,64.31
2018-03-08T14:37:39.087Z,63.67
2018-03-08T14:39:32.024Z,63.57
2018-03-08T14:40:31.833Z,62.52
2018-03-08T14:42:24.669Z,63.57
2018-03-08T14:43:24.571Z,63.67
2018-03-08T14:45:17.436Z,63.20
2018-03-08T14:46:17.313Z,63.64
2018-03-08T14:48:10.187Z,64.31
2018-03-08T14:49:10.090Z,64.40
2018-03-08T14:51:02.931Z,64.69
2018-03-08T14:52:02.812Z,64.40
2018-03-08T14:53:55.684Z,65.23
2018-03-08T14:54:55.561Z,65.89
2018-03-08T14:56:48.953Z,65.61
2018-03-08T14:57:48.830Z,66.18
2018-03-08T14:59:41.722Z,66.56
2018-03-08T15:00:41.570Z,66.56
2018-03-08T15:02:34.511Z,67.00
2018-03-08T15:03:34.324Z,67.38
2018-03-08T15:05:27.180Z,67.00
2018-03-08T15:06:27.072Z,67.47
2018-03-08T15:08:19.921Z,67.29
2018-03-08T15:09:19.825Z,68.33
2018-03-08T15:11:12.691Z,68.52
2018-03-08T15:12:12.583Z,68.52
2018-03-08T15:14:05.423Z,68.77
2018-03-08T15:15:05.322Z,68.96
2018-03-08T15:16:58.214Z,69.29
2018-03-08T15:17:58.068Z,69.73
2018-03-08T15:19:50.924Z,69.15
2018-03-08T15:20:50.839Z,69.15
2018-03-08T15:22:43.689Z,69.35
2018-03-08T15:23:43.568Z,69.73
2018-03-08T15:25:36.357Z,69.35
2018-03-08T15:26:36.220Z,70.10
2018-03-08T15:28:28.978Z,70.49
2018-03-08T15:29:28.863Z,69.63
2018-03-08T15:31:21.637Z,69.82
2018-03-08T15:32:21.522Z,69.73
2018-03-08T15:34:14.276Z,70.20
2018-03-08T15:35:14.169Z,70.10
2018-03-08T15:37:06.903Z,69.82
2018-03-08T15:38:06.811Z,70.49
2018-03-08T15:39:59.573Z,70.30
2018-03-08T15:40:59.458Z,70.10
2018-03-08T15:42:52.210Z,70.77
2018-03-08T15:43:52.100Z,70.30
2018-03-08T15:45:44.866Z,70.87
2018-03-08T15:46:44.750Z,70.87
2018-03-08T15:48:37.501Z,70.49
2018-03-08T15:49:37.394Z,70.49
2018-03-08T15:51:30.680Z,70.49
2018-03-08T15:52:30.559Z,70.30
2018-03-08T15:54:23.397Z,71.34
2018-03-08T15:55:23.314Z,70.39
2018-03-08T15:57:16.171Z,70.49
2018-03-08T15:58:16.049Z,70.49
2018-03-08T16:00:08.911Z,70.39
2018-03-08T16:01:08.800Z,70.77
2018-03-08T16:03:01.653Z,70.74
2018-03-08T16:04:01.561Z,70.68
2018-03-08T16:05:54.408Z,70.74
2018-03-08T16:06:54.333Z,71.12
2018-03-08T16:08:47.160Z,71.12
2018-03-08T16:09:47.119Z,71.41
2018-03-08T16:11:39.900Z,71.41
2018-03-08T16:12:39.801Z,71.41
2018-03-08T16:14:32.679Z,71.22
2018-03-08T16:15:32.549Z,71.97
2018-03-08T16:17:25.405Z,72.07
2018-03-08T16:18:25.343Z,71.88
2018-03-08T16:20:18.190Z,73.11
2018-03-08T16:21:18.076Z,73.30
2018-03-08T16:23:10.913Z,73.69
2018-03-08T16:24:10.802Z,74.26
2018-03-08T16:26:03.666Z,75.68
2018-03-08T16:27:03.574Z,76.63
2018-03-08T16:28:56.407Z,77.77
2018-03-08T16:29:56.302Z,77.49
2018-03-08T16:31:49.171Z,78.97
2018-03-08T16:32:49.049Z,79.16
2018-03-08T16:34:41.964Z,80.11
2018-03-08T16:35:41.813Z,80.58
2018-03-08T16:37:34.653Z,81.63
2018-03-08T16:38:34.552Z,81.82
2018-03-08T16:40:27.422Z,82.87
2018-03-08T16:41:27.290Z,83.25
2018-03-08T16:43:20.155Z,84.29
2018-03-08T16:44:20.112Z,84.16
2018-03-08T16:46:13.028Z,84.44
2018-03-08T16:47:12.905Z,84.91
2018-03-08T16:49:05.807Z,85.86
2018-03-08T16:50:05.644Z,86.63
2018-03-08T16:51:58.526Z,87.10
2018-03-08T16:52:58.392Z,86.43
2018-03-08T16:54:51.359Z,85.11
2018-03-08T16:55:51.240Z,84.53
2018-03-08T16:57:44.163Z,86.34
2018-03-08T16:58:43.990Z,86.82
2018-03-08T17:00:38.386Z,87.86
2018-03-08T17:01:38.292Z,88.24
2018-03-08T17:03:34.225Z,87.38
2018-03-08T17:04:34.122Z,87.76
2018-03-08T17:06:26.957Z,88.01
2018-03-08T17:07:26.855Z,87.62
2018-03-08T17:09:19.767Z,88.10
2018-03-08T17:10:19.611Z,89.33
2018-03-08T17:12:14.001Z,90.09
2018-03-08T17:13:13.897Z,89.24
2018-03-08T17:15:19.071Z,88.57
2018-03-08T17:16:18.941Z,88.20
2018-03-08T17:18:11.678Z,87.53
2018-03-08T17:19:11.580Z,87.62
2018-03-08T17:21:04.383Z,88.57
2018-03-08T17:22:04.249Z,88.48
2018-03-08T17:23:56.973Z,88.67
2018-03-08T17:24:56.904Z,88.95
2018-03-08T17:26:49.659Z,88.20
2018-03-08T17:27:49.544Z,87.62
2018-03-08T17:29:42.283Z,87.72
2018-03-08T17:30:42.166Z,88.67
2018-03-08T17:32:34.987Z,87.05
2018-03-08T17:33:34.812Z,87.53
2018-03-08T17:35:27.663Z,87.72
2018-03-08T17:36:27.593Z,88.01
2018-03-08T17:38:20.521Z,88.01
2018-03-08T17:39:20.412Z,88.01
2018-03-08T17:41:13.193Z,87.34
2018-03-08T17:42:13.082Z,87.43
2018-03-08T17:44:05.951Z,87.72
2018-03-08T17:45:05.807Z,87.91
2018-03-08T17:46:58.652Z,88.39
2018-03-08T17:47:58.556Z,87.91
2018-03-08T17:49:51.422Z,88.29
2018-03-08T17:50:51.328Z,88.48
2018-03-08T17:52:44.064Z,89.24
2018-03-08T17:53:43.966Z,88.95
2018-03-08T17:55:37.228Z,89.24
2018-03-08T17:56:37.116Z,88.95
2018-03-08T17:58:29.859Z,88.86
2018-03-08T17:59:29.797Z,90.09
2018-03-08T18:01:22.527Z,88.76
2018-03-08T18:02:22.425Z,89.24
2018-03-08T18:04:15.181Z,89.90
2018-03-08T18:05:15.072Z,90.00
2018-03-08T18:07:07.818Z,90.19
2018-03-08T18:08:07.727Z,90.85
2018-03-08T18:10:00.460Z,91.14
2018-03-08T18:11:00.348Z,91.04
2018-03-08T18:12:53.110Z,90.95
2018-03-08T18:13:53.128Z,90.95
2018-03-08T18:15:45.757Z,91.33
2018-03-08T18:16:45.649Z,91.89
2018-03-08T18:18:38.496Z,92.28
2018-03-08T18:19:38.395Z,91.04
2018-03-08T18:21:31.139Z,90.57
2018-03-08T18:22:31.053Z,90.66
2018-03-08T18:24:23.805Z,90.57
2018-03-08T18:25:23.685Z,91.04
2018-03-08T18:27:16.436Z,90.95
2018-03-08T18:28:16.345Z,90.85
2018-03-08T18:30:09.289Z,90.47
2018-03-08T18:31:09.187Z,90.66
2018-03-08T18:33:01.941Z,90.57
2018-03-08T18:34:01.856Z,90.19
2018-03-08T18:35:54.800Z,90.28
2018-03-08T18:36:54.684Z,90.85